Time;durP1;ratioP1;P1;durP2;ratioP2;P2;SDS_P1;SDS_P2;PMS_P1;PMS_P2;Temp;Humidity;BMP_temperature;BMP_pressure;BME280_temperature;BME280_humidity;BME280_pressure;Samples;Min_cycle;Max_cycle;Signal;HPM_P1;HPM_P2
2022/10/03 00:01:58;;;;;;;12.70;4.53;;;11.30;92.10;;;;;;5026708;28;20438;-66
2022/10/03 00:04:45;;;;;;;14.93;4.30;;;11.30;92.10;;;;;;5024269;28;20524;-68
2022/10/03 00:07:24;;;;;;;9.73;4.50;;;11.30;92.30;;;;;;5025406;28;20513;-67
2022/10/03 00:10:04;;;;;;;9.85;4.35;;;11.30;92.40;;;;;;5034641;28;20430;-68
2022/10/03 00:12:53;;;;;;;6.68;3.70;;;11.20;92.40;;;;;;5027946;28;20812;-68
2022/10/03 00:15:26;;;;;;;11.27;4.32;;;11.20;92.60;;;;;;5026411;28;20514;-65
2022/10/03 00:18:02;;;;;;;9.53;4.20;;;11.20;92.60;;;;;;5027726;28;20419;-67
2022/10/03 00:20:46;;;;;;;6.80;4.22;;;11.20;92.70;;;;;;5030439;28;20418;-67
2022/10/03 00:23:20;;;;;;;10.23;4.05;;;11.10;92.80;;;;;;5031685;28;20939;-68
2022/10/03 00:25:55;;;;;;;12.02;4.80;;;11.10;92.80;;;;;;5028215;28;20440;-66
2022/10/03 00:28:43;;;;;;;8.35;3.90;;;11.10;92.90;;;;;;5030168;28;20426;-66
2022/10/03 00:31:13;;;;;;;10.18;4.35;;;11.10;92.90;;;;;;5029875;28;20422;-67
2022/10/03 00:33:55;;;;;;;9.95;4.30;;;11.10;92.90;;;;;;5030061;28;20427;-65
2022/10/03 00:36:30;;;;;;;10.93;4.13;;;11.00;92.90;;;;;;5030010;28;20427;-68
2022/10/03 00:39:31;;;;;;;10.32;4.60;;;11.00;93.10;;;;;;5030296;28;20929;-68
2022/10/03 00:42:44;;;;;;;10.27;4.00;;;10.90;93.20;;;;;;5028930;28;20438;-67
2022/10/03 00:45:59;;;;;;;12.50;4.25;;;10.90;93.30;;;;;;5030022;28;20430;-68
2022/10/03 00:48:54;;;;;;;8.95;4.50;;;10.90;93.50;;;;;;5023686;28;20423;-66
2022/10/03 00:51:40;;;;;;;12.68;4.20;;;10.90;93.50;;;;;;5031759;28;20427;-67
2022/10/03 00:54:32;;;;;;;11.13;4.80;;;10.80;93.60;;;;;;5029561;28;20909;-67
2022/10/03 00:57:28;;;;;;;9.35;4.50;;;10.80;93.60;;;;;;5027425;28;20435;-65
2022/10/03 01:00:15;;;;;;;11.20;4.00;;;10.80;93.60;;;;;;4974974;28;20460;-65
2022/10/03 01:03:04;;;;;;;11.07;4.65;;;10.70;93.70;;;;;;5024656;28;20951;-69
2022/10/03 01:05:45;;;;;;;10.43;4.50;;;10.70;93.80;;;;;;5017812;28;20422;-68
2022/10/03 01:09:02;;;;;;;11.77;5.65;;;10.70;94.00;;;;;;5029758;28;20431;-67
2022/10/03 01:11:43;;;;;;;10.10;4.28;;;10.70;94.00;;;;;;5003498;28;20882;-66
2022/10/03 01:14:23;;;;;;;10.52;4.75;;;10.70;94.10;;;;;;5029015;28;20429;-66
2022/10/03 01:17:02;;;;;;;12.23;5.18;;;10.70;94.10;;;;;;5029391;28;20414;-66
2022/10/03 01:19:48;;;;;;;9.70;4.70;;;10.70;94.30;;;;;;5027293;28;21219;-66
2022/10/03 01:22:35;;;;;;;11.63;5.10;;;10.70;94.30;;;;;;5028665;28;20888;-67
2022/10/03 01:25:12;;;;;;;10.05;5.20;;;10.60;94.30;;;;;;5025947;28;21038;-66
2022/10/03 01:30:41;;;;;;;8.80;5.25;;;10.60;94.40;;;;;;5022833;28;20422;-67
2022/10/03 01:33:13;;;;;;;10.82;5.07;;;10.60;94.50;;;;;;5028728;28;20422;-67
2022/10/03 01:35:52;;;;;;;11.48;5.25;;;10.60;94.70;;;;;;5028972;28;20422;-67
2022/10/03 01:38:27;;;;;;;12.65;5.20;;;10.60;94.60;;;;;;5020319;28;20484;-67
2022/10/03 01:40:59;;;;;;;10.68;5.68;;;10.50;94.60;;;;;;5026966;28;20427;-66
2022/10/03 01:43:37;;;;;;;10.73;4.93;;;10.50;94.60;;;;;;5029443;28;20442;-66
2022/10/03 01:46:17;;;;;;;12.25;5.78;;;10.50;94.70;;;;;;5028573;28;20990;-66
2022/10/03 01:48:53;;;;;;;13.30;4.87;;;10.50;94.70;;;;;;5028599;28;20427;-67
2022/10/03 01:51:26;;;;;;;12.23;4.63;;;10.40;94.80;;;;;;5035580;28;20415;-67
2022/10/03 01:54:08;;;;;;;9.73;5.03;;;10.40;94.80;;;;;;5047532;22;20427;-76
2022/10/03 01:56:40;;;;;;;12.63;4.65;;;10.40;94.90;;;;;;5033631;28;20544;-76
2022/10/03 01:59:12;;;;;;;11.27;5.10;;;10.40;95.00;;;;;;5037399;28;20866;-74
2022/10/03 02:01:50;;;;;;;7.82;4.70;;;10.40;95.00;;;;;;5028214;28;20442;-75
2022/10/03 02:04:29;;;;;;;9.68;5.03;;;10.40;95.10;;;;;;5047761;28;20412;-75
2022/10/03 02:07:04;;;;;;;12.95;5.10;;;10.40;95.10;;;;;;5048764;28;20846;-73
2022/10/03 02:09:38;;;;;;;10.60;4.88;;;10.40;95.20;;;;;;5043182;28;20432;-74
2022/10/03 02:12:09;;;;;;;9.70;4.90;;;10.40;95.20;;;;;;5048265;28;20460;-74
2022/10/03 02:14:48;;;;;;;8.15;5.05;;;10.40;95.10;;;;;;5047178;28;20428;-74
2022/10/03 02:17:27;;;;;;;12.07;5.30;;;10.40;95.10;;;;;;5046089;28;20931;-73
2022/10/03 02:20:01;;;;;;;10.00;4.70;;;10.40;95.10;;;;;;5049600;28;20478;-75
2022/10/03 02:22:31;;;;;;;10.80;4.95;;;10.40;95.10;;;;;;5049559;28;20440;-76
2022/10/03 02:25:11;;;;;;;10.43;5.20;;;10.40;95.10;;;;;;5052539;28;20489;-74
2022/10/03 02:28:15;;;;;;;10.05;5.30;;;10.30;95.00;;;;;;5048513;28;20440;-73
2022/10/03 02:31:06;;;;;;;12.27;5.30;;;10.40;95.00;;;;;;5050010;28;20426;-74
2022/10/03 02:34:03;;;;;;;10.00;4.80;;;10.40;95.20;;;;;;5043780;28;20429;-74
2022/10/03 02:37:06;;;;;;;10.25;5.40;;;10.30;95.10;;;;;;5046092;28;20450;-74
2022/10/03 02:40:09;;;;;;;7.63;4.68;;;10.30;95.10;;;;;;5046530;28;20428;-74
2022/10/03 02:43:19;;;;;;;8.98;5.05;;;10.30;95.10;;;;;;5046027;28;20515;-73
2022/10/03 02:46:16;;;;;;;12.48;5.00;;;10.30;95.20;;;;;;5046398;28;20425;-75
2022/10/03 02:49:25;;;;;;;9.23;4.93;;;10.20;95.20;;;;;;5048916;28;20440;-74
2022/10/03 02:52:10;;;;;;;11.68;5.47;;;10.20;95.60;;;;;;5044764;28;20433;-73
2022/10/03 02:55:26;;;;;;;9.48;5.10;;;10.20;95.20;;;;;;5047698;28;20807;-74
2022/10/03 02:58:25;;;;;;;7.30;4.72;;;10.20;95.20;;;;;;5005087;28;20536;-75
2022/10/03 03:01:17;;;;;;;9.60;4.90;;;10.20;95.20;;;;;;5042936;28;20424;-75
2022/10/03 03:04:13;;;;;;;10.55;4.88;;;10.10;95.20;;;;;;5021041;28;20410;-74
2022/10/03 03:06:56;;;;;;;12.40;5.43;;;10.10;95.10;;;;;;5045867;28;20429;-74
2022/10/03 03:09:53;;;;;;;11.25;5.00;;;10.10;95.10;;;;;;5040868;28;20457;-73
2022/10/03 03:12:49;;;;;;;10.47;4.70;;;10.10;95.40;;;;;;5038296;28;20420;-73
2022/10/03 03:15:49;;;;;;;9.35;4.97;;;10.00;94.90;;;;;;5034894;28;20439;-74
2022/10/03 03:18:29;;;;;;;10.70;4.90;;;10.00;95.10;;;;;;5042949;28;20811;-76
2022/10/03 03:21:05;;;;;;;11.97;5.73;;;10.00;95.00;;;;;;5047930;28;20448;-75
2022/10/03 03:23:45;;;;;;;11.20;5.77;;;10.00;95.20;;;;;;5049791;28;21092;-76
2022/10/03 03:26:41;;;;;;;10.02;4.70;;;10.00;95.40;;;;;;5043479;28;20524;-76
2022/10/03 03:29:17;;;;;;;11.45;5.80;;;10.10;95.60;;;;;;5047164;28;20422;-76
2022/10/03 03:31:53;;;;;;;8.25;5.15;;;10.10;95.60;;;;;;5056298;28;20469;-76
2022/10/03 03:34:26;;;;;;;9.73;5.72;;;10.10;95.60;;;;;;5046107;28;20429;-76
2022/10/03 03:37:00;;;;;;;9.93;6.47;;;10.10;95.80;;;;;;5045079;28;20440;-75
2022/10/03 03:39:42;;;;;;;12.23;6.40;;;10.20;95.80;;;;;;5041346;28;20997;-75
2022/10/03 03:42:33;;;;;;;6.97;5.57;;;10.20;96.00;;;;;;5045504;28;20433;-75
2022/10/03 03:45:15;;;;;;;11.13;6.20;;;10.20;96.00;;;;;;5044541;28;20417;-75
2022/10/03 03:48:11;;;;;;;10.73;6.50;;;10.20;96.00;;;;;;5040508;28;20443;-75
2022/10/03 03:50:47;;;;;;;12.30;6.70;;;10.20;95.90;;;;;;5052866;28;20513;-75
2022/10/03 03:53:40;;;;;;;9.60;5.80;;;10.20;95.90;;;;;;5045420;28;20423;-75
2022/10/03 03:56:39;;;;;;;8.15;6.05;;;10.10;96.00;;;;;;5041345;28;20422;-76
2022/10/03 03:59:21;;;;;;;7.53;5.90;;;10.10;96.00;;;;;;5034989;28;20425;-73
2022/10/03 04:02:03;;;;;;;9.45;6.30;;;10.10;95.90;;;;;;5048249;28;20805;-73
2022/10/03 04:04:44;;;;;;;10.65;6.45;;;10.10;95.90;;;;;;5050173;28;20576;-74
2022/10/03 04:07:26;;;;;;;10.20;6.73;;;10.10;96.20;;;;;;5048016;28;20432;-74
2022/10/03 04:10:11;;;;;;;10.90;5.65;;;10.10;95.90;;;;;;5047302;28;20926;-75
2022/10/03 04:12:54;;;;;;;11.82;5.90;;;10.10;95.70;;;;;;5050428;28;20421;-73
2022/10/03 04:15:35;;;;;;;11.40;5.97;;;10.00;95.70;;;;;;5050122;28;20471;-75
2022/10/03 04:21:20;;;;;;;10.15;5.97;;;10.00;95.80;;;;;;5049170;28;20502;-73
2022/10/03 04:24:19;;;;;;;11.20;6.00;;;9.90;96.30;;;;;;5054876;28;20431;-74
2022/10/03 04:27:02;;;;;;;8.77;5.85;;;9.90;95.80;;;;;;5044960;28;20436;-76
2022/10/03 04:29:46;;;;;;;11.07;6.43;;;9.80;95.80;;;;;;5049990;28;20421;-75
2022/10/03 04:32:26;;;;;;;11.95;6.43;;;9.80;96.00;;;;;;5043346;28;20432;-73
2022/10/03 04:35:11;;;;;;;13.00;6.20;;;9.80;95.90;;;;;;5047209;28;20441;-73
2022/10/03 04:37:45;;;;;;;11.45;6.40;;;9.80;96.00;;;;;;5049815;28;20425;-74
2022/10/03 04:40:25;;;;;;;9.60;5.80;;;9.80;96.10;;;;;;5050394;28;20783;-76
2022/10/03 04:43:04;;;;;;;12.60;6.53;;;9.80;96.20;;;;;;5049480;28;20429;-73
2022/10/03 04:45:56;;;;;;;11.35;7.03;;;9.90;96.30;;;;;;5049713;28;20482;-73
2022/10/03 04:48:32;;;;;;;11.75;6.60;;;9.90;96.40;;;;;;5045359;28;20520;-73
2022/10/03 04:51:07;;;;;;;12.15;7.00;;;9.90;96.40;;;;;;5050255;28;20417;-74
2022/10/03 04:53:44;;;;;;;8.77;6.35;;;9.90;96.40;;;;;;5047653;28;20421;-73
2022/10/03 04:56:38;;;;;;;13.80;7.20;;;9.80;96.20;;;;;;5042690;28;20425;-75
2022/10/03 04:59:19;;;;;;;11.30;7.40;;;9.80;96.20;;;;;;5050139;28;20799;-73
2022/10/03 05:01:53;;;;;;;8.80;6.97;;;9.80;96.20;;;;;;5050091;28;21100;-75
2022/10/03 05:04:28;;;;;;;11.48;6.70;;;9.80;96.30;;;;;;5047728;28;20432;-75
2022/10/03 05:07:05;;;;;;;9.90;6.90;;;9.70;96.20;;;;;;5047013;28;20421;-76
2022/10/03 05:09:42;;;;;;;10.40;6.80;;;9.70;96.30;;;;;;5049813;28;20440;-76
2022/10/03 05:12:15;;;;;;;12.82;7.70;;;9.70;96.50;;;;;;5049170;28;20941;-75
2022/10/03 05:14:54;;;;;;;11.43;6.65;;;9.80;96.70;;;;;;5049690;28;20421;-76
2022/10/03 05:17:27;;;;;;;10.25;6.30;;;9.80;96.70;;;;;;5050226;28;20432;-75
2022/10/03 05:20:12;;;;;;;12.77;7.22;;;9.80;96.70;;;;;;5047859;28;20429;-76
2022/10/03 05:22:48;;;;;;;10.80;7.50;;;9.80;96.70;;;;;;5048710;28;20910;-76
2022/10/03 05:25:29;;;;;;;10.93;6.75;;;9.80;96.80;;;;;;5054644;28;20499;-76
2022/10/03 05:28:06;;;;;;;11.93;7.20;;;9.80;97.00;;;;;;5048049;28;20421;-75
2022/10/03 05:30:44;;;;;;;13.07;7.60;;;9.90;97.10;;;;;;5044177;28;20432;-75
2022/10/03 05:33:21;;;;;;;10.02;7.28;;;9.90;97.10;;;;;;5049175;28;20425;-74
2022/10/03 05:36:03;;;;;;;11.90;6.88;;;9.80;97.00;;;;;;5048612;28;20509;-74
2022/10/03 05:38:59;;;;;;;11.30;6.90;;;9.80;97.00;;;;;;5041954;28;20616;-73
2022/10/03 05:41:31;;;;;;;10.70;7.10;;;9.80;97.00;;;;;;5039477;28;20897;-74
2022/10/03 05:44:04;;;;;;;10.30;6.53;;;9.80;96.90;;;;;;5054717;28;20989;-74
2022/10/03 05:46:53;;;;;;;10.43;7.30;;;9.80;96.80;;;;;;5049790;28;20424;-74
2022/10/03 05:49:43;;;;;;;11.88;7.72;;;9.80;96.80;;;;;;5048558;28;20439;-73
2022/10/03 05:52:33;;;;;;;9.52;6.75;;;9.80;96.90;;;;;;5049171;28;21150;-75
2022/10/03 05:55:25;;;;;;;10.52;7.15;;;9.80;96.90;;;;;;5049412;28;20421;-75
2022/10/03 05:58:24;;;;;;;10.10;7.23;;;9.80;96.90;;;;;;5037096;28;20780;-75
2022/10/03 06:01:16;;;;;;;13.48;7.65;;;9.70;96.90;;;;;;5032902;28;20907;-73
2022/10/03 06:04:06;;;;;;;10.65;7.75;;;9.70;97.00;;;;;;5045732;28;20436;-75
2022/10/03 06:06:51;;;;;;;10.27;6.80;;;9.80;97.10;;;;;;5044760;28;20464;-76
2022/10/03 06:09:46;;;;;;;10.45;6.68;;;9.80;97.10;;;;;;5040010;28;20433;-73
2022/10/03 06:12:20;;;;;;;11.80;7.38;;;9.80;97.10;;;;;;5044265;28;20437;-71
2022/10/03 06:15:36;;;;;;;9.65;6.80;;;9.70;97.10;;;;;;5047918;28;20421;-73
2022/10/03 06:18:21;;;;;;;12.00;7.35;;;9.70;97.00;;;;;;4980384;28;20443;-71
2022/10/03 06:21:24;;;;;;;11.13;7.40;;;9.70;96.90;;;;;;4976731;28;21002;-73
2022/10/03 06:24:34;;;;;;;9.63;7.20;;;9.80;96.90;;;;;;5032708;28;21358;-73
2022/10/03 06:27:32;;;;;;;12.10;8.00;;;9.70;96.80;;;;;;5048066;28;20421;-73
2022/10/03 06:30:18;;;;;;;14.52;8.10;;;9.80;97.00;;;;;;5048246;28;20421;-73
2022/10/03 06:33:18;;;;;;;14.38;8.77;;;9.90;97.30;;;;;;5046789;28;20784;-72
2022/10/03 06:36:11;;;;;;;13.23;8.27;;;9.90;97.40;;;;;;5044265;28;20425;-73
2022/10/03 06:39:07;;;;;;;13.48;9.20;;;10.00;97.40;;;;;;5037527;28;20417;-74
2022/10/03 06:42:02;;;;;;;15.00;9.03;;;10.20;97.50;;;;;;5021839;28;20421;-74
2022/10/03 06:44:46;;;;;;;14.75;7.82;;;10.30;97.40;;;;;;5047472;28;20421;-73
2022/10/03 06:47:26;;;;;;;13.75;8.40;;;10.40;97.40;;;;;;5046673;28;20448;-71
2022/10/03 06:50:18;;;;;;;12.00;8.50;;;10.50;97.30;;;;;;5052835;28;20797;-71
2022/10/03 06:53:27;;;;;;;11.38;8.55;;;10.60;97.10;;;;;;5046952;28;21005;-71
2022/10/03 06:56:21;;;;;;;13.85;8.70;;;10.70;96.80;;;;;;5039947;28;20468;-71
2022/10/03 06:59:19;;;;;;;13.05;8.68;;;10.70;96.70;;;;;;5047457;28;20453;-71
2022/10/03 07:02:17;;;;;;;11.73;8.63;;;10.80;96.40;;;;;;5042031;28;20425;-73
2022/10/03 07:05:25;;;;;;;12.95;8.45;;;10.90;96.30;;;;;;5047403;28;20426;-75
2022/10/03 07:08:20;;;;;;;12.52;8.40;;;10.90;95.90;;;;;;5052797;28;20434;-73
2022/10/03 07:11:07;;;;;;;15.25;8.85;;;10.90;95.80;;;;;;5051309;28;20420;-71
2022/10/03 07:14:07;;;;;;;13.77;9.00;;;11.00;95.70;;;;;;5049410;28;20403;-72
2022/10/03 07:17:13;;;;;;;12.80;9.40;;;11.10;95.80;;;;;;5044965;28;20433;-71
2022/10/03 07:20:31;;;;;;;12.57;8.07;;;11.20;95.70;;;;;;5045533;28;20440;-72
2022/10/03 07:23:31;;;;;;;12.88;8.73;;;11.40;95.40;;;;;;4932407;28;21012;-70
2022/10/03 07:26:27;;;;;;;11.90;8.88;;;11.60;94.90;;;;;;4951920;28;20444;-71
2022/10/03 07:29:14;;;;;;;12.02;7.80;;;11.80;94.70;;;;;;5048141;28;20421;-70
2022/10/03 07:32:11;;;;;;;10.10;7.50;;;12.00;94.50;;;;;;5046521;28;20433;-73
2022/10/03 07:35:08;;;;;;;10.18;7.55;;;12.20;94.10;;;;;;5049251;28;20425;-72
2022/10/03 07:41:37;;;;;;;7.88;6.95;;;12.60;92.80;;;;;;5056859;28;20416;-71
2022/10/03 07:44:29;;;;;;;15.87;7.60;;;12.90;92.00;;;;;;5046350;28;20542;-73
2022/10/03 07:47:44;;;;;;;12.90;7.18;;;13.00;91.90;;;;;;5034345;28;20485;-73
2022/10/03 07:50:46;;;;;;;8.32;7.07;;;13.40;90.60;;;;;;5048129;28;21226;-71
2022/10/03 07:53:26;;;;;;;9.52;6.97;;;13.60;89.60;;;;;;5045527;28;20433;-73
2022/10/03 07:56:02;;;;;;;9.90;7.15;;;13.90;87.80;;;;;;5098884;22;20432;-67
2022/10/03 07:58:44;;;;;;;9.98;7.35;;;14.20;86.00;;;;;;5096097;22;20462;-66
2022/10/03 08:01:35;;;;;;;11.95;7.55;;;14.40;84.20;;;;;;5078492;28;20435;-67
2022/10/03 08:04:29;;;;;;;9.95;6.57;;;14.60;82.90;;;;;;5083120;28;20509;-67
2022/10/03 08:07:09;;;;;;;10.23;7.55;;;14.70;82.20;;;;;;5050168;28;20865;-66
2022/10/03 08:09:59;;;;;;;13.50;8.07;;;14.60;81.70;;;;;;5059969;28;21077;-67
2022/10/03 08:13:02;;;;;;;9.73;7.50;;;14.50;81.90;;;;;;5053001;28;20516;-67
2022/10/03 08:15:46;;;;;;;10.75;7.03;;;14.60;82.00;;;;;;5054692;28;20427;-67
2022/10/03 08:18:50;;;;;;;10.63;7.30;;;14.80;81.50;;;;;;5054885;28;20411;-67
2022/10/03 08:21:22;;;;;;;9.50;7.18;;;15.00;80.60;;;;;;5061734;28;20419;-67
2022/10/03 08:24:09;;;;;;;11.95;7.00;;;15.30;79.50;;;;;;5062645;28;20438;-67
2022/10/03 08:26:54;;;;;;;10.18;6.80;;;15.70;78.00;;;;;;5047740;28;20429;-67
2022/10/03 08:29:46;;;;;;;9.52;6.10;;;16.00;76.90;;;;;;5061144;28;20416;-68
2022/10/03 08:32:46;;;;;;;9.73;5.97;;;16.20;75.00;;;;;;5062128;28;20428;-67
2022/10/03 08:35:59;;;;;;;9.52;5.28;;;16.50;75.10;;;;;;5061244;28;20412;-67
2022/10/03 08:38:47;;;;;;;10.32;4.70;;;16.90;73.00;;;;;;4997426;28;20436;-68
2022/10/03 08:41:49;;;;;;;8.48;5.35;;;17.10;70.90;;;;;;4983816;28;20417;-68
2022/10/03 08:44:47;;;;;;;6.90;4.50;;;17.10;71.10;;;;;;5046178;28;20419;-67
2022/10/03 08:47:32;;;;;;;8.37;4.63;;;16.90;72.30;;;;;;5062137;28;20717;-67
2022/10/03 08:50:27;;;;;;;10.70;5.18;;;16.90;70.90;;;;;;5064473;28;20424;-67
2022/10/03 08:53:31;;;;;;;11.10;5.30;;;16.60;70.50;;;;;;5052332;28;20427;-67
2022/10/03 08:56:06;;;;;;;9.73;5.30;;;16.40;72.80;;;;;;5055317;28;20423;-67
2022/10/03 08:59:03;;;;;;;9.50;5.00;;;16.30;72.30;;;;;;5063704;28;20492;-67
2022/10/03 09:01:38;;;;;;;10.95;5.38;;;16.20;73.60;;;;;;5056343;28;20435;-67
2022/10/03 09:04:40;;;;;;;8.63;4.60;;;16.20;73.50;;;;;;5065752;28;20466;-67
2022/10/03 09:07:31;;;;;;;10.30;4.78;;;16.20;72.20;;;;;;5063643;28;20448;-67
2022/10/03 09:10:51;;;;;;;9.93;4.55;;;16.10;72.90;;;;;;5063020;28;20507;-68
2022/10/03 09:13:57;;;;;;;6.15;3.60;;;16.00;73.50;;;;;;5065105;28;20412;-68
2022/10/03 09:16:48;;;;;;;8.73;4.60;;;16.00;72.20;;;;;;5019770;28;20442;-68
2022/10/03 09:19:51;;;;;;;8.27;3.40;;;16.00;73.60;;;;;;5059473;28;20435;-68
2022/10/03 09:22:43;;;;;;;7.60;3.50;;;16.10;74.20;;;;;;5070409;28;20448;-67
2022/10/03 09:25:24;;;;;;;8.82;3.60;;;16.30;73.50;;;;;;5062874;28;20450;-69
2022/10/03 09:28:19;;;;;;;9.98;3.60;;;16.30;73.30;;;;;;5064935;28;20900;-68
2022/10/03 09:30:53;;;;;;;6.13;3.08;;;16.50;73.00;;;;;;5064043;28;20435;-69
2022/10/03 09:33:50;;;;;;;7.35;3.00;;;16.70;72.20;;;;;;5057636;28;20447;-70
2022/10/03 09:37:01;;;;;;;7.05;3.17;;;17.10;71.30;;;;;;5050837;28;20439;-70
2022/10/03 09:39:59;;;;;;;5.53;2.80;;;17.40;69.80;;;;;;5064814;28;20415;-69
2022/10/03 09:43:07;;;;;;;7.10;3.20;;;17.80;69.10;;;;;;5061959;28;20416;-69
2022/10/03 09:46:08;;;;;;;6.53;3.00;;;17.90;67.80;;;;;;5040637;28;20427;-72
2022/10/03 09:49:07;;;;;;;5.80;3.00;;;17.90;68.00;;;;;;5056188;28;20423;-67
2022/10/03 09:51:47;;;;;;;7.45;3.30;;;18.10;66.00;;;;;;5047735;28;20440;-69
2022/10/03 09:54:48;;;;;;;7.07;2.75;;;18.30;66.00;;;;;;5055528;28;20407;-70
2022/10/03 09:57:45;;;;;;;6.55;2.58;;;18.50;63.00;;;;;;5062427;28;20436;-67
2022/10/03 10:00:21;;;;;;;9.57;2.83;;;18.90;61.80;;;;;;5057886;28;20462;-68
2022/10/03 10:03:07;;;;;;;6.90;2.53;;;19.10;60.50;;;;;;5050719;28;20425;-68
2022/10/03 10:05:54;;;;;;;5.80;2.00;;;19.20;60.20;;;;;;5046163;28;20459;-67
2022/10/03 10:09:10;;;;;;;6.45;2.72;;;19.40;59.80;;;;;;5058071;28;20431;-70
2022/10/03 10:12:07;;;;;;;8.10;2.40;;;19.60;59.30;;;;;;5062304;28;20427;-68
2022/10/03 10:15:16;;;;;;;7.40;2.50;;;19.40;58.40;;;;;;5062096;28;20427;-70
2022/10/03 10:18:38;;;;;;;4.57;2.10;;;19.20;60.30;;;;;;5013170;28;20426;-68
2022/10/03 10:21:41;;;;;;;4.18;2.20;;;19.10;59.80;;;;;;5036290;28;20767;-68
2022/10/03 10:24:55;;;;;;;7.40;2.70;;;19.00;60.10;;;;;;5053872;28;20747;-68
2022/10/03 10:28:02;;;;;;;5.30;2.50;;;18.70;59.70;;;;;;5032551;28;20423;-68
2022/10/03 10:31:05;;;;;;;6.80;2.30;;;18.40;62.10;;;;;;5055327;28;20449;-69
2022/10/03 10:34:24;;;;;;;4.70;1.95;;;18.20;62.20;;;;;;5056148;28;20429;-69
2022/10/03 10:37:44;;;;;;;8.20;2.80;;;17.80;64.10;;;;;;5006764;28;20532;-69
2022/10/03 10:40:35;;;;;;;6.18;1.90;;;17.50;63.50;;;;;;5020701;28;20434;-69
2022/10/03 10:43:37;;;;;;;6.57;2.40;;;17.30;65.30;;;;;;5038387;28;20897;-69
2022/10/03 10:46:45;;;;;;;4.95;2.10;;;17.50;67.20;;;;;;5063228;28;20420;-69
2022/10/03 10:49:52;;;;;;;6.07;2.28;;;18.20;63.40;;;;;;5056779;28;20445;-69
2022/10/03 10:53:20;;;;;;;5.15;2.00;;;18.90;60.30;;;;;;5056396;28;20439;-69
2022/10/03 10:56:35;;;;;;;5.55;1.90;;;19.60;58.70;;;;;;5063333;28;20415;-69
2022/10/03 10:59:56;;;;;;;6.25;1.88;;;20.10;55.10;;;;;;4979990;28;20510;-69
2022/10/03 11:03:13;;;;;;;4.63;2.25;;;20.40;55.00;;;;;;5055340;28;20439;-69
2022/10/03 11:06:30;;;;;;;5.50;1.80;;;20.50;54.90;;;;;;5054051;28;20496;-69
2022/10/03 11:09:41;;;;;;;4.20;1.70;;;20.80;52.20;;;;;;5061270;28;20518;-70
2022/10/03 11:12:43;;;;;;;4.55;2.00;;;21.10;53.30;;;;;;5051779;28;20431;-69
2022/10/03 11:15:47;;;;;;;4.60;1.90;;;21.40;51.40;;;;;;5053135;28;20523;-69
2022/10/03 11:18:50;;;;;;;3.50;1.30;;;21.00;51.10;;;;;;5061647;28;20422;-69
2022/10/03 11:21:58;;;;;;;4.90;2.13;;;20.70;50.40;;;;;;5060777;28;20778;-71
2022/10/03 11:25:00;;;;;;;3.97;1.50;;;20.80;50.40;;;;;;5052715;28;20455;-70
2022/10/03 11:27:55;;;;;;;5.65;1.40;;;20.80;51.70;;;;;;5027666;28;20451;-69
2022/10/03 11:30:43;;;;;;;2.65;1.33;;;20.80;50.40;;;;;;5058184;28;20908;-70
2022/10/03 11:34:07;;;;;;;4.72;1.83;;;20.70;51.30;;;;;;5061157;28;20421;-71
2022/10/03 11:37:10;;;;;;;6.38;2.58;;;20.70;53.70;;;;;;5061264;28;20415;-71
2022/10/03 11:39:45;;;;;;;4.60;2.13;;;20.60;54.40;;;;;;5051179;28;20930;-69
2022/10/03 11:42:22;;;;;;;5.47;2.15;;;20.40;54.40;;;;;;5061203;28;20434;-69
2022/10/03 11:44:57;;;;;;;6.57;2.40;;;20.10;55.40;;;;;;5056245;28;20821;-70
2022/10/03 11:47:45;;;;;;;5.55;2.30;;;19.90;56.30;;;;;;5060874;28;20416;-69
2022/10/03 11:50:32;;;;;;;5.20;2.10;;;19.70;56.50;;;;;;5062743;28;20877;-67
2022/10/03 11:53:29;;;;;;;6.22;3.10;;;19.50;56.90;;;;;;5071720;28;20537;-68
2022/10/03 11:56:11;;;;;;;5.10;3.03;;;19.20;58.40;;;;;;5063188;28;20494;-67
2022/10/03 11:58:54;;;;;;;5.13;2.20;;;19.00;59.00;;;;;;5060054;28;20434;-68
2022/10/03 12:01:35;;;;;;;3.58;1.88;;;18.90;58.60;;;;;;5059956;28;20431;-68
2022/10/03 12:04:11;;;;;;;5.93;1.77;;;18.90;59.40;;;;;;5061588;28;20486;-69
2022/10/03 12:09:53;;;;;;;4.85;1.80;;;19.60;56.80;;;;;;5066840;28;20773;-70
2022/10/03 12:12:30;;;;;;;4.65;1.60;;;19.90;56.30;;;;;;5060563;28;21073;-69
2022/10/03 12:15:04;;;;;;;4.88;1.75;;;20.50;52.50;;;;;;5064568;28;20919;-69
2022/10/03 12:17:35;;;;;;;3.50;1.60;;;20.80;51.50;;;;;;5066455;28;20415;-67
2022/10/03 12:20:14;;;;;;;4.63;1.70;;;20.70;51.30;;;;;;5066383;28;20479;-67
2022/10/03 12:22:48;;;;;;;3.17;1.50;;;20.40;51.10;;;;;;5066045;28;20423;-67
2022/10/03 12:25:22;;;;;;;2.97;1.30;;;20.10;53.90;;;;;;5067091;28;20487;-68
2022/10/03 12:28:10;;;;;;;3.63;1.40;;;19.70;52.80;;;;;;5065413;28;20898;-69
2022/10/03 12:30:47;;;;;;;5.63;2.80;;;19.40;54.30;;;;;;5072756;28;20438;-67
2022/10/03 12:33:46;;;;;;;4.55;2.72;;;19.20;55.60;;;;;;5056335;28;20426;-67
2022/10/03 12:36:17;;;;;;;4.53;1.80;;;19.00;56.60;;;;;;5061339;28;21221;-67
2022/10/03 12:38:55;;;;;;;4.05;1.83;;;18.90;57.10;;;;;;5062192;28;20522;-67
2022/10/03 12:41:35;;;;;;;4.55;1.63;;;18.90;57.50;;;;;;5058799;28;20435;-69
2022/10/03 12:44:19;;;;;;;4.00;1.60;;;18.80;55.20;;;;;;5064557;28;20565;-70
2022/10/03 12:46:54;;;;;;;3.00;1.52;;;19.10;54.60;;;;;;5065291;28;20435;-68
2022/10/03 12:49:38;;;;;;;4.70;1.48;;;19.60;54.10;;;;;;5063340;28;20443;-68
2022/10/03 12:52:15;;;;;;;4.60;1.48;;;19.70;52.30;;;;;;5063646;28;21013;-67
2022/10/03 12:54:48;;;;;;;3.47;1.40;;;19.60;51.30;;;;;;5064865;28;20460;-68
2022/10/03 12:57:45;;;;;;;4.45;1.60;;;19.40;51.60;;;;;;5066763;28;20443;-67
2022/10/03 13:00:20;;;;;;;2.80;1.10;;;19.10;52.40;;;;;;5065400;28;20951;-69
2022/10/03 13:03:01;;;;;;;3.60;1.50;;;18.90;53.10;;;;;;5064682;28;21030;-69
2022/10/03 13:05:53;;;;;;;4.07;1.50;;;18.80;55.10;;;;;;5060483;28;20438;-69
2022/10/03 13:08:36;;;;;;;4.47;1.40;;;18.70;53.40;;;;;;5068591;28;20440;-69
2022/10/03 13:11:13;;;;;;;5.82;4.30;;;18.60;54.90;;;;;;5068576;28;20434;-69
2022/10/03 13:13:52;;;;;;;7.37;4.03;;;18.70;55.10;;;;;;5057617;28;20476;-68
2022/10/03 13:16:25;;;;;;;4.55;2.28;;;18.70;55.90;;;;;;5062487;28;20419;-69
2022/10/03 13:18:58;;;;;;;5.28;2.60;;;18.70;56.70;;;;;;5065747;28;20861;-69
2022/10/03 13:21:50;;;;;;;5.53;2.30;;;18.70;57.00;;;;;;5066027;28;20427;-69
2022/10/03 13:24:30;;;;;;;6.50;2.00;;;18.60;57.70;;;;;;5056769;28;20484;-69
2022/10/03 13:27:06;;;;;;;4.72;1.70;;;18.50;58.50;;;;;;5062716;28;20893;-69
2022/10/03 13:29:40;;;;;;;4.55;2.10;;;18.40;58.80;;;;;;5065529;28;20450;-69
2022/10/03 13:32:25;;;;;;;4.00;2.17;;;18.40;58.40;;;;;;5065188;28;20419;-69
2022/10/03 13:38:37;;;;;;;4.03;1.98;;;18.40;59.60;;;;;;5066595;28;20811;-68
2022/10/03 13:41:14;;;;;;;4.25;1.90;;;18.40;59.60;;;;;;5062224;28;20612;-69
2022/10/03 13:43:46;;;;;;;4.97;2.10;;;18.30;58.50;;;;;;5065090;28;20438;-68
2022/10/03 13:46:18;;;;;;;3.67;1.75;;;18.30;58.40;;;;;;5064340;28;20519;-69
2022/10/03 13:48:55;;;;;;;4.53;1.70;;;18.30;58.40;;;;;;5064219;28;20476;-69
2022/10/03 13:51:31;;;;;;;3.75;1.70;;;18.60;57.60;;;;;;5061797;28;20424;-69
2022/10/03 13:54:05;;;;;;;4.63;1.60;;;19.10;57.20;;;;;;5060865;28;20471;-69
2022/10/03 13:56:48;;;;;;;4.07;1.70;;;19.60;55.80;;;;;;5061141;28;20993;-68
2022/10/03 13:59:27;;;;;;;3.53;1.50;;;20.10;53.60;;;;;;5065018;28;20416;-67
2022/10/03 14:02:05;;;;;;;3.65;1.50;;;20.50;53.90;;;;;;5053873;28;20412;-68
2022/10/03 14:05:01;;;;;;;3.05;1.60;;;20.80;50.80;;;;;;5060167;28;20427;-68
2022/10/03 14:07:37;;;;;;;5.43;1.73;;;21.10;49.40;;;;;;5062102;28;20438;-68
2022/10/03 14:10:20;;;;;;;4.30;2.00;;;21.00;50.20;;;;;;5055703;28;20423;-68
2022/10/03 14:13:01;;;;;;;3.42;1.80;;;20.80;49.90;;;;;;5063603;28;20427;-68
2022/10/03 14:15:42;;;;;;;5.63;1.88;;;20.50;51.00;;;;;;5064428;28;20411;-69
2022/10/03 14:18:25;;;;;;;3.35;1.50;;;20.20;51.10;;;;;;5062693;28;20484;-68
2022/10/03 14:21:38;;;;;;;5.38;1.70;;;20.20;52.40;;;;;;5064708;28;20416;-68
2022/10/03 14:24:15;;;;;;;4.53;2.10;;;20.20;51.90;;;;;;5019889;28;20431;-68
2022/10/03 14:26:51;;;;;;;4.53;1.80;;;20.30;51.70;;;;;;5062349;28;20434;-68
2022/10/03 14:29:26;;;;;;;4.07;1.60;;;20.20;51.50;;;;;;5052435;28;20511;-68
2022/10/03 14:31:58;;;;;;;3.42;1.73;;;20.20;51.60;;;;;;5063997;28;20415;-68
2022/10/03 14:34:41;;;;;;;3.15;1.50;;;20.50;51.90;;;;;;5062467;28;20419;-69
2022/10/03 14:37:24;;;;;;;3.40;1.65;;;20.90;50.30;;;;;;5055348;28;20435;-69
2022/10/03 14:40:04;;;;;;;4.45;1.67;;;21.30;49.30;;;;;;5063176;28;20443;-68
2022/10/03 14:42:59;;;;;;;4.70;1.73;;;21.70;48.60;;;;;;5064279;28;20411;-68
2022/10/03 14:45:29;;;;;;;3.35;1.63;;;21.80;48.80;;;;;;5052105;28;20419;-69
2022/10/03 14:48:00;;;;;;;4.40;1.70;;;21.50;48.30;;;;;;5062805;28;20423;-69